Time;durP1;ratioP1;P1;durP2;ratioP2;P2;SDS_P1;SDS_P2;PMS_P1;PMS_P2;Temp;Humidity;BMP_temperature;BMP_pressure;BME280_temperature;BME280_humidity;BME280_pressure;Samples;Min_cycle;Max_cycle;Signal;HPM_P1;HPM_P2
2022/09/22 00:01:26;;;;;;;4.93;3.60;;;7.50;99.90;;;;;;5002745;28;20622;-74
2022/09/22 00:03:57;;;;;;;5.03;3.40;;;8.10;99.90;;;;;;4997298;28;20195;-75
2022/09/22 00:06:32;;;;;;;5.90;3.20;;;8.10;99.90;;;;;;4997765;28;20215;-77
2022/09/22 00:09:01;;;;;;;3.83;3.27;;;8.00;99.90;;;;;;4981112;28;20214;-74
2022/09/22 00:11:34;;;;;;;5.10;2.70;;;8.00;99.90;;;;;;4995717;28;20498;-74
2022/09/22 00:14:11;;;;;;;3.70;3.20;;;8.20;99.90;;;;;;4994991;28;20693;-75
2022/09/22 00:16:41;;;;;;;3.70;2.70;;;8.00;99.90;;;;;;4998763;28;20229;-76
2022/09/22 00:19:11;;;;;;;2.90;2.60;;;8.30;99.90;;;;;;4995202;28;20363;-75
2022/09/22 00:21:39;;;;;;;4.10;2.80;;;7.90;99.90;;;;;;4980818;28;20254;-75
2022/09/22 00:24:07;;;;;;;6.43;2.70;;;7.00;99.90;;;;;;4983546;28;20269;-75
2022/09/22 00:26:36;;;;;;;5.17;2.67;;;7.90;99.90;;;;;;4981075;28;20247;-74
2022/09/22 00:29:06;;;;;;;4.70;2.60;;;7.80;99.90;;;;;;4979013;28;20581;-74
2022/09/22 00:31:38;;;;;;;3.57;2.77;;;7.80;99.90;;;;;;4980828;28;20718;-76
2022/09/22 00:34:07;;;;;;;4.13;2.50;;;7.50;99.90;;;;;;4974651;28;20342;-73
2022/09/22 00:36:34;;;;;;;3.43;2.50;;;8.40;99.90;;;;;;4995263;28;20207;-74
2022/09/22 00:39:01;;;;;;;3.90;2.43;;;7.70;99.90;;;;;;4996355;28;20245;-76
2022/09/22 00:41:36;;;;;;;4.50;2.63;;;7.70;99.90;;;;;;4992308;28;20207;-74
2022/09/22 00:44:25;;;;;;;3.97;2.80;;;7.70;99.90;;;;;;4981835;28;20287;-75
2022/09/22 00:47:01;;;;;;;2.97;2.53;;;7.60;99.90;;;;;;4979374;28;20223;-74
2022/09/22 00:50:29;;;;;;;3.63;2.67;;;7.60;99.90;;;;;;4992254;28;20222;-76
2022/09/22 00:53:09;;;;;;;4.07;2.60;;;7.60;99.90;;;;;;4994644;28;20264;-74
2022/09/22 00:55:38;;;;;;;4.43;2.70;;;7.50;99.90;;;;;;4998362;28;20699;-75
2022/09/22 00:58:10;;;;;;;4.63;2.70;;;8.00;99.90;;;;;;4996751;28;20230;-74
2022/09/22 01:00:37;;;;;;;3.83;2.40;;;7.70;99.90;;;;;;4996395;28;20218;-74
2022/09/22 01:03:14;;;;;;;3.80;2.60;;;7.70;99.90;;;;;;4978258;28;20210;-77
2022/09/22 01:05:46;;;;;;;5.60;2.70;;;8.90;99.90;;;;;;4980807;28;20207;-74
2022/09/22 01:08:14;;;;;;;5.63;2.77;;;7.70;99.90;;;;;;4993620;28;20218;-74
2022/09/22 01:10:42;;;;;;;3.30;3.00;;;8.10;99.90;;;;;;4977984;28;20305;-76
2022/09/22 01:13:21;;;;;;;2.70;2.47;;;7.70;99.90;;;;;;4994698;28;20222;-75
2022/09/22 01:16:09;;;;;;;6.10;2.93;;;7.80;99.90;;;;;;4996631;28;20218;-74
2022/09/22 01:18:54;;;;;;;3.67;2.33;;;7.60;99.90;;;;;;4981482;28;20237;-75
2022/09/22 01:21:56;;;;;;;5.40;2.77;;;7.90;99.90;;;;;;4991486;28;20261;-75
2022/09/22 01:24:39;;;;;;;4.10;2.47;;;7.80;99.90;;;;;;4996763;28;20307;-74
2022/09/22 01:27:22;;;;;;;2.53;2.30;;;7.60;99.90;;;;;;4997127;28;20224;-75
2022/09/22 01:30:12;;;;;;;4.13;2.67;;;7.40;99.90;;;;;;4990911;28;20303;-74
2022/09/22 01:32:53;;;;;;;4.77;2.43;;;7.20;99.90;;;;;;4998152;28;20270;-74
2022/09/22 01:35:59;;;;;;;2.37;2.10;;;7.70;99.90;;;;;;4996434;28;20298;-74
2022/09/22 01:38:34;;;;;;;4.83;2.40;;;7.40;99.90;;;;;;4992365;28;20288;-75
2022/09/22 01:41:14;;;;;;;4.17;2.60;;;7.30;99.90;;;;;;4992013;28;20211;-77
2022/09/22 01:43:56;;;;;;;3.23;2.27;;;7.20;99.90;;;;;;4994115;28;20281;-74
2022/09/22 01:46:36;;;;;;;2.43;2.23;;;7.30;99.90;;;;;;4990118;28;20227;-75
2022/09/22 01:49:09;;;;;;;3.10;2.73;;;7.10;99.90;;;;;;4978430;28;20217;-75
2022/09/22 01:52:11;;;;;;;3.70;2.63;;;7.20;99.90;;;;;;4996661;28;20950;-74
2022/09/22 01:54:46;;;;;;;3.97;2.50;;;7.10;99.90;;;;;;4933257;28;20663;-75
2022/09/22 01:57:22;;;;;;;3.50;2.80;;;7.10;99.90;;;;;;4995901;28;20770;-73
2022/09/22 01:59:54;;;;;;;4.77;2.63;;;6.20;99.90;;;;;;4974716;28;20209;-74
2022/09/22 02:02:55;;;;;;;3.50;2.90;;;7.50;99.90;;;;;;4978659;28;20277;-76
2022/09/22 02:05:39;;;;;;;4.27;2.67;;;7.00;99.90;;;;;;4970567;28;20987;-74
2022/09/22 02:08:12;;;;;;;3.67;2.50;;;7.00;99.90;;;;;;4999632;28;20646;-75
2022/09/22 02:10:46;;;;;;;4.30;2.47;;;7.00;99.90;;;;;;4996774;28;20742;-74
2022/09/22 02:13:14;;;;;;;5.83;2.70;;;6.80;99.90;;;;;;4994723;28;21057;-75
2022/09/22 02:16:00;;;;;;;7.23;4.00;;;6.90;99.90;;;;;;4995834;28;20269;-74
2022/09/22 02:19:21;;;;;;;2.97;2.23;;;6.90;99.90;;;;;;4980244;28;20241;-74
2022/09/22 02:21:49;;;;;;;5.30;2.37;;;6.90;99.90;;;;;;4898261;29;20259;-74
2022/09/22 02:24:43;;;;;;;4.27;2.67;;;6.70;99.90;;;;;;4979748;28;20209;-74
2022/09/22 02:27:10;;;;;;;3.97;3.00;;;6.90;99.90;;;;;;4994322;28;20220;-76
2022/09/22 02:29:45;;;;;;;3.47;2.93;;;6.90;99.90;;;;;;4992928;28;20565;-75
2022/09/22 02:32:15;;;;;;;5.57;2.80;;;6.60;99.90;;;;;;4987234;28;20652;-74
2022/09/22 02:34:44;;;;;;;2.70;2.50;;;6.70;99.90;;;;;;4980524;28;20222;-74
2022/09/22 02:37:23;;;;;;;3.37;2.80;;;6.80;99.90;;;;;;4989456;28;20213;-76
2022/09/22 02:39:59;;;;;;;4.77;2.80;;;7.00;99.90;;;;;;4978886;28;20223;-74
2022/09/22 02:42:47;;;;;;;2.93;2.60;;;6.80;99.90;;;;;;4978780;28;20240;-74
2022/09/22 02:45:32;;;;;;;2.90;2.57;;;6.80;99.90;;;;;;4996683;28;20302;-74
2022/09/22 02:48:23;;;;;;;5.70;2.50;;;6.70;99.90;;;;;;4985983;28;20227;-75
2022/09/22 02:50:55;;;;;;;4.73;2.20;;;6.90;99.90;;;;;;4995880;28;20296;-74
2022/09/22 02:53:23;;;;;;;4.07;2.20;;;6.80;99.90;;;;;;5005722;28;20223;-74
2022/09/22 02:55:50;;;;;;;2.97;2.43;;;6.60;99.90;;;;;;5001673;28;20217;-76
2022/09/22 02:58:17;;;;;;;3.40;2.30;;;6.60;99.90;;;;;;4997905;28;20250;-74
2022/09/22 03:00:44;;;;;;;5.93;2.60;;;6.30;99.90;;;;;;4981278;28;20208;-75
2022/09/22 03:03:11;;;;;;;3.03;2.17;;;8.00;99.90;;;;;;4980688;28;20249;-74
2022/09/22 03:05:39;;;;;;;3.87;2.53;;;6.40;99.90;;;;;;4982037;28;20211;-75
2022/09/22 03:08:06;;;;;;;3.67;2.60;;;6.50;99.90;;;;;;5004809;28;20253;-75
2022/09/22 03:10:36;;;;;;;2.70;2.33;;;6.50;99.90;;;;;;5000305;28;20633;-75
2022/09/22 03:13:03;;;;;;;4.20;2.53;;;6.80;99.90;;;;;;5001302;28;20234;-74
2022/09/22 03:15:46;;;;;;;2.63;2.10;;;6.70;99.90;;;;;;4984330;28;20630;-75
2022/09/22 03:18:13;;;;;;;5.67;2.60;;;6.60;99.90;;;;;;4997845;28;20241;-75
2022/09/22 03:20:44;;;;;;;3.43;2.70;;;6.50;99.90;;;;;;4977387;28;20204;-76
2022/09/22 03:23:11;;;;;;;3.00;2.67;;;6.60;99.90;;;;;;4985356;28;20260;-74
2022/09/22 03:29:29;;;;;;;3.17;2.40;;;;;;;;;;4994570;28;20349;-75
2022/09/22 03:31:56;;;;;;;3.87;2.00;;;6.40;99.90;;;;;;5001210;28;20253;-74
2022/09/22 03:34:23;;;;;;;2.83;2.60;;;6.30;99.90;;;;;;4987035;28;20308;-75
2022/09/22 03:36:50;;;;;;;3.33;2.27;;;6.30;99.90;;;;;;4999685;28;20337;-75
2022/09/22 03:39:25;;;;;;;2.53;1.93;;;6.30;99.90;;;;;;4997701;28;20338;-76
2022/09/22 03:41:52;;;;;;;3.80;2.20;;;6.30;99.90;;;;;;5003235;28;20999;-74
2022/09/22 03:44:19;;;;;;;3.13;2.37;;;6.40;99.90;;;;;;4997375;28;20340;-74
2022/09/22 03:46:49;;;;;;;4.90;3.03;;;6.30;99.90;;;;;;4983432;28;20224;-76
2022/09/22 03:49:16;;;;;;;2.87;2.43;;;6.30;99.90;;;;;;4999593;28;20209;-73
2022/09/22 03:51:43;;;;;;;6.90;2.30;;;6.30;99.90;;;;;;4982416;28;20218;-73
2022/09/22 03:54:11;;;;;;;2.40;2.17;;;6.30;99.90;;;;;;4997911;28;20233;-76
2022/09/22 03:56:39;;;;;;;3.97;2.10;;;6.20;99.90;;;;;;4982896;28;20311;-74
2022/09/22 03:59:06;;;;;;;2.90;2.00;;;6.20;99.90;;;;;;4999632;28;20320;-74
2022/09/22 04:01:33;;;;;;;2.17;1.80;;;6.20;99.90;;;;;;4997948;28;20227;-74
2022/09/22 04:04:00;;;;;;;2.47;2.03;;;6.00;99.90;;;;;;4995673;28;20244;-74
2022/09/22 04:06:27;;;;;;;4.40;2.10;;;6.10;99.90;;;;;;4996420;28;20262;-75
2022/09/22 04:09:00;;;;;;;2.27;2.00;;;6.10;99.90;;;;;;4998379;28;20225;-74
2022/09/22 04:11:30;;;;;;;1.93;1.73;;;6.10;99.90;;;;;;4998081;28;20523;-73
2022/09/22 04:13:58;;;;;;;2.23;1.80;;;6.10;99.90;;;;;;4987243;28;20324;-73
2022/09/22 04:16:27;;;;;;;3.40;1.80;;;6.00;99.90;;;;;;4979067;28;20226;-76
2022/09/22 04:18:55;;;;;;;3.10;2.20;;;6.00;99.90;;;;;;4979397;28;20812;-74
2022/09/22 04:21:22;;;;;;;2.63;1.90;;;6.20;99.90;;;;;;4996548;28;20660;-74
2022/09/22 04:23:49;;;;;;;2.60;2.20;;;6.50;99.90;;;;;;4993629;28;20751;-73
2022/09/22 04:26:16;;;;;;;4.70;2.13;;;6.70;99.90;;;;;;4995815;28;20293;-75
2022/09/22 04:28:43;;;;;;;2.93;2.10;;;6.00;99.90;;;;;;4984369;28;20299;-74
2022/09/22 04:31:10;;;;;;;2.17;1.97;;;6.10;99.90;;;;;;4980301;28;20593;-75
2022/09/22 04:33:40;;;;;;;5.17;2.20;;;6.10;99.90;;;;;;5003756;28;20203;-75
2022/09/22 04:36:08;;;;;;;5.77;1.70;;;5.80;99.90;;;;;;5001013;28;20208;-75
2022/09/22 04:38:35;;;;;;;2.17;1.73;;;6.00;99.90;;;;;;4995398;28;20249;-74
2022/09/22 04:41:02;;;;;;;2.80;2.10;;;6.00;99.90;;;;;;5001494;28;20296;-74
2022/09/22 04:43:29;;;;;;;2.10;1.90;;;5.90;99.90;;;;;;4996896;28;20208;-74
2022/09/22 04:46:00;;;;;;;4.63;1.97;;;5.90;99.90;;;;;;5002699;28;20219;-74
2022/09/22 04:48:27;;;;;;;4.57;1.97;;;6.00;99.90;;;;;;4977961;28;20267;-74
2022/09/22 04:50:54;;;;;;;3.33;2.03;;;5.90;99.90;;;;;;4997312;28;20298;-74
2022/09/22 04:53:21;;;;;;;2.37;2.00;;;5.90;99.90;;;;;;4978248;28;20670;-74
2022/09/22 04:55:49;;;;;;;3.37;1.83;;;5.90;99.90;;;;;;4979853;28;20222;-74
2022/09/22 04:58:16;;;;;;;2.47;1.67;;;5.70;99.90;;;;;;4996078;28;20226;-75
2022/09/22 05:00:43;;;;;;;3.57;2.00;;;5.70;99.90;;;;;;4993661;28;20341;-73
2022/09/22 05:03:11;;;;;;;4.00;2.20;;;7.20;99.90;;;;;;4998690;28;20218;-74
2022/09/22 05:05:40;;;;;;;3.77;1.90;;;6.00;99.90;;;;;;4986402;28;20691;-74
2022/09/22 05:08:07;;;;;;;2.50;1.60;;;7.00;99.90;;;;;;4975041;28;20199;-75
2022/09/22 05:10:36;;;;;;;3.80;2.00;;;7.60;99.90;;;;;;4982704;28;20211;-75
2022/09/22 05:13:04;;;;;;;2.37;2.10;;;6.10;99.90;;;;;;4977907;28;20679;-75
2022/09/22 05:15:33;;;;;;;3.23;2.07;;;5.80;99.90;;;;;;4986459;28;20194;-74
2022/09/22 05:18:09;;;;;;;3.27;2.20;;;5.40;99.90;;;;;;4997782;28;20232;-77
2022/09/22 05:20:37;;;;;;;4.77;2.60;;;6.00;99.90;;;;;;4993872;28;20201;-74
2022/09/22 05:23:06;;;;;;;7.77;2.77;;;5.70;99.90;;;;;;4969754;28;20207;-75
2022/09/22 05:25:33;;;;;;;5.07;2.73;;;5.90;99.90;;;;;;4973729;28;20210;-74
2022/09/22 05:28:01;;;;;;;8.30;3.00;;;6.00;99.90;;;;;;4976299;28;20814;-75
2022/09/22 05:30:28;;;;;;;2.80;2.33;;;6.00;99.90;;;;;;4977294;28;20226;-74
2022/09/22 05:32:55;;;;;;;2.53;2.20;;;5.90;99.90;;;;;;4995920;28;20631;-74
2022/09/22 05:35:24;;;;;;;3.20;2.53;;;5.70;99.90;;;;;;4963110;28;20212;-74
2022/09/22 05:37:51;;;;;;;3.83;2.40;;;5.80;99.90;;;;;;4986327;28;20295;-73
2022/09/22 05:40:19;;;;;;;6.73;2.80;;;6.10;99.90;;;;;;4992138;28;20313;-74
2022/09/22 05:42:48;;;;;;;5.27;3.03;;;5.80;99.90;;;;;;4996296;28;20712;-74
2022/09/22 05:45:18;;;;;;;3.67;3.10;;;6.10;99.90;;;;;;4997503;28;20727;-74
2022/09/22 05:47:46;;;;;;;5.53;3.20;;;6.10;99.90;;;;;;4991209;28;20285;-75
2022/09/22 05:50:15;;;;;;;4.63;3.30;;;6.10;99.90;;;;;;4982142;28;20203;-75
2022/09/22 05:52:42;;;;;;;5.50;3.20;;;6.20;99.90;;;;;;4989118;28;20204;-74
2022/09/22 05:55:10;;;;;;;4.50;2.80;;;6.10;99.90;;;;;;4988274;28;20683;-73
2022/09/22 05:57:37;;;;;;;3.50;3.10;;;6.00;99.90;;;;;;4997750;28;20214;-74
2022/09/22 06:00:05;;;;;;;5.70;2.97;;;6.30;99.90;;;;;;4997081;28;20229;-74
2022/09/22 06:02:32;;;;;;;5.50;2.67;;;6.20;99.90;;;;;;4988929;28;20299;-74
2022/09/22 06:04:59;;;;;;;8.77;2.70;;;7.10;99.90;;;;;;4998326;28;20213;-75
2022/09/22 06:07:26;;;;;;;4.60;2.73;;;6.30;99.90;;;;;;4971999;28;20610;-74
2022/09/22 06:09:53;;;;;;;5.50;2.80;;;6.40;99.90;;;;;;4976505;28;20687;-76
2022/09/22 06:12:24;;;;;;;4.43;2.63;;;6.50;99.90;;;;;;4994195;28;20300;-76
2022/09/22 06:14:50;;;;;;;4.70;2.40;;;6.40;99.90;;;;;;4983063;28;20217;-75
2022/09/22 06:17:17;;;;;;;7.17;2.70;;;6.40;99.90;;;;;;4987861;28;20211;-75
2022/09/22 06:19:48;;;;;;;5.03;3.00;;;6.60;99.90;;;;;;4990206;28;20223;-75
2022/09/22 06:22:16;;;;;;;4.53;2.90;;;6.50;99.90;;;;;;4972105;28;20206;-75
2022/09/22 06:24:43;;;;;;;4.53;3.13;;;6.60;99.90;;;;;;4986158;28;20713;-76
2022/09/22 06:27:11;;;;;;;4.23;3.00;;;6.60;99.90;;;;;;4993586;28;20307;-76
2022/09/22 06:29:40;;;;;;;7.73;3.67;;;7.20;99.90;;;;;;4989074;28;20248;-75
2022/09/22 06:32:09;;;;;;;6.37;3.80;;;6.70;99.90;;;;;;4974453;28;20323;-77
2022/09/22 06:34:37;;;;;;;6.70;4.00;;;6.80;99.90;;;;;;4992854;28;20210;-77
2022/09/22 06:37:10;;;;;;;5.73;3.27;;;6.80;99.90;;;;;;4975193;28;20202;-77
2022/09/22 06:39:37;;;;;;;4.93;3.80;;;6.90;99.90;;;;;;4977531;28;20329;-76
2022/09/22 06:42:05;;;;;;;6.10;3.53;;;7.30;99.90;;;;;;4997658;28;20229;-75
2022/09/22 06:44:32;;;;;;;5.93;3.80;;;7.20;99.90;;;;;;4975633;28;20218;-75
2022/09/22 06:47:04;;;;;;;7.13;4.10;;;7.30;99.90;;;;;;4991366;28;20226;-76
2022/09/22 06:49:31;;;;;;;5.30;3.67;;;8.10;99.90;;;;;;4986092;28;20204;-76
2022/09/22 06:51:58;;;;;;;6.80;3.50;;;;;;;;;;4993713;28;20344;-76
2022/09/22 06:54:25;;;;;;;4.20;3.17;;;9.40;99.90;;;;;;4992335;28;20539;-76
2022/09/22 06:56:53;;;;;;;6.27;3.33;;;;;;;;;;4991490;28;20242;-75
2022/09/22 06:59:19;;;;;;;8.83;6.53;;;11.00;99.90;;;;;;4984262;28;20239;-76
2022/09/22 07:01:47;;;;;;;16.30;8.77;;;11.70;99.90;;;;;;4998958;28;20270;-75
2022/09/22 07:04:14;;;;;;;14.63;10.50;;;12.50;99.90;;;;;;4974458;28;20896;-75
2022/09/22 07:06:42;;;;;;;15.67;10.03;;;13.20;99.90;;;;;;4989588;28;20213;-74
2022/09/22 07:09:11;;;;;;;9.57;6.90;;;13.80;99.90;;;;;;4966896;28;20294;-76
2022/09/22 07:11:38;;;;;;;7.97;5.17;;;14.00;99.90;;;;;;4994643;28;20210;-76
2022/09/22 07:14:07;;;;;;;12.23;7.00;;;14.20;99.90;;;;;;4992359;28;20207;-76
2022/09/22 07:16:34;;;;;;;9.87;7.03;;;14.30;99.90;;;;;;4993893;28;20227;-75
2022/09/22 07:19:04;;;;;;;9.10;6.13;;;14.20;99.90;;;;;;4967827;28;20228;-76
2022/09/22 07:21:35;;;;;;;13.00;5.27;;;14.20;99.90;;;;;;4990854;28;20232;-77
2022/09/22 07:24:03;;;;;;;7.17;4.83;;;14.30;99.90;;;;;;4999675;28;20200;-77
2022/09/22 07:26:33;;;;;;;9.73;5.13;;;14.70;99.90;;;;;;4989176;28;20215;-77
2022/09/22 07:29:04;;;;;;;8.90;6.25;;;14.80;99.90;;;;;;4993215;28;20211;-77
2022/09/22 07:31:33;;;;;;;8.65;5.93;;;15.10;99.90;;;;;;4986614;28;20626;-77
2022/09/22 07:34:00;;;;;;;6.30;5.47;;;15.20;99.90;;;;;;4993161;28;20211;-77
2022/09/22 07:36:29;;;;;;;8.80;5.88;;;15.40;99.90;;;;;;4990755;28;20597;-76
2022/09/22 07:39:01;;;;;;;8.70;6.05;;;15.40;99.90;;;;;;4994119;28;20313;-78
2022/09/22 07:41:30;;;;;;;9.18;6.35;;;16.00;99.90;;;;;;4990813;28;20213;-78
2022/09/22 07:46:45;;;;;;;9.20;6.22;;;16.20;99.90;;;;;;4988580;28;20357;-76
2022/09/22 07:49:13;;;;;;;7.63;6.53;;;16.70;99.90;;;;;;4986134;28;20195;-77
2022/09/22 07:51:41;;;;;;;14.88;7.15;;;17.30;99.90;;;;;;4988825;28;20215;-78
2022/09/22 07:54:09;;;;;;;10.18;6.30;;;17.10;99.90;;;;;;4968086;28;20616;-77
2022/09/22 07:56:39;;;;;;;12.95;8.02;;;17.20;99.90;;;;;;4976367;28;20218;-76
2022/09/22 07:59:15;;;;;;;10.35;7.72;;;17.40;99.90;;;;;;4993021;28;20318;-78
2022/09/22 08:01:46;;;;;;;9.23;8.05;;;17.40;99.90;;;;;;4981983;28;20266;-78
2022/09/22 08:04:21;;;;;;;13.88;7.93;;;17.40;99.90;;;;;;4991481;28;20292;-77
2022/09/22 08:06:54;;;;;;;17.52;8.38;;;17.40;99.90;;;;;;4970389;28;20267;-80
2022/09/22 08:09:23;;;;;;;10.50;8.27;;;17.60;99.90;;;;;;4973877;28;20217;-78
2022/09/22 08:11:52;;;;;;;9.98;7.95;;;17.80;99.90;;;;;;4980062;28;20203;-79
2022/09/22 08:14:22;;;;;;;11.48;8.02;;;18.10;99.90;;;;;;4995831;28;20268;-79
2022/09/22 08:16:52;;;;;;;10.18;8.85;;;18.40;99.90;;;;;;4992873;28;20884;-79
2022/09/22 08:19:22;;;;;;;11.93;8.45;;;18.70;99.90;;;;;;4993737;28;20304;-77
2022/09/22 08:21:51;;;;;;;12.75;8.75;;;18.90;99.90;;;;;;4989023;28;20231;-77
2022/09/22 08:24:21;;;;;;;12.90;8.60;;;19.20;99.90;;;;;;4990480;28;20223;-77
2022/09/22 08:26:51;;;;;;;13.32;8.88;;;19.40;99.90;;;;;;4970893;28;20199;-78
2022/09/22 08:29:19;;;;;;;13.60;9.32;;;19.70;99.90;;;;;;4971989;28;20230;-78
2022/09/22 08:31:52;;;;;;;12.20;8.23;;;19.90;99.90;;;;;;4983002;28;20769;-76
2022/09/22 08:34:20;;;;;;;10.90;8.40;;;20.10;99.90;;;;;;4994950;28;20277;-77
2022/09/22 08:36:51;;;;;;;13.02;8.35;;;20.20;99.90;;;;;;4989886;28;20261;-78
2022/09/22 08:39:21;;;;;;;10.32;8.18;;;20.30;99.90;;;;;;4987379;28;20293;-77
2022/09/22 08:42:17;;;;;;;11.15;7.82;;;20.40;99.90;;;;;;4986517;28;20203;-78
2022/09/22 08:45:20;;;;;;;10.55;7.75;;;20.60;99.90;;;;;;4966018;28;20207;-78
2022/09/22 08:53:46;;;;;;;10.20;6.88;;;20.80;99.90;;;;;;4986287;28;20199;-78
2022/09/22 08:56:34;;;;;;;9.63;6.50;;;20.90;99.90;;;;;;4983105;28;20291;-77
2022/09/22 08:59:22;;;;;;;12.52;6.47;;;20.80;99.90;;;;;;4986885;28;20297;-78
2022/09/22 09:01:59;;;;;;;10.98;6.53;;;20.70;99.90;;;;;;4970987;28;20242;-78
2022/09/22 09:04:43;;;;;;;12.35;6.90;;;20.60;99.90;;;;;;4991383;28;20202;-78
2022/09/22 09:07:42;;;;;;;10.23;7.10;;;20.50;99.90;;;;;;4983137;28;20195;-78
2022/09/22 09:10:44;;;;;;;8.43;6.22;;;20.50;99.90;;;;;;4983930;28;20573;-78
2022/09/22 09:13:29;;;;;;;8.27;6.10;;;20.60;99.90;;;;;;4982907;28;20644;-78
2022/09/22 09:16:42;;;;;;;10.88;6.30;;;20.70;99.90;;;;;;4991399;28;20549;-80
2022/09/22 09:19:23;;;;;;;9.65;5.72;;;20.90;99.90;;;;;;4985313;28;20219;-76
2022/09/22 09:21:53;;;;;;;8.07;6.35;;;20.80;99.90;;;;;;4987077;28;20207;-77
2022/09/22 09:24:30;;;;;;;8.68;6.35;;;20.80;99.90;;;;;;4964919;28;20207;-77
2022/09/22 09:27:25;;;;;;;8.75;5.40;;;20.80;99.90;;;;;;4972226;28;20206;-77
2022/09/22 09:30:14;;;;;;;11.85;6.32;;;20.90;99.90;;;;;;4984182;28;20316;-76
2022/09/22 09:32:49;;;;;;;7.53;5.40;;;20.80;99.90;;;;;;4965771;28;20303;-76
2022/09/22 09:35:23;;;;;;;6.75;4.65;;;20.90;99.90;;;;;;4989261;28;20222;-75
2022/09/22 09:37:53;;;;;;;8.70;5.35;;;20.90;99.90;;;;;;4975204;28;20651;-76
2022/09/22 09:40:20;;;;;;;6.68;5.10;;;21.00;99.90;;;;;;4992494;28;20668;-76
2022/09/22 09:43:07;;;;;;;10.45;5.28;;;21.00;99.90;;;;;;4976424;28;20233;-76
2022/09/22 09:45:58;;;;;;;9.73;5.50;;;21.00;99.90;;;;;;4991327;28;20633;-75
2022/09/22 09:48:39;;;;;;;8.95;5.60;;;20.90;99.90;;;;;;4988954;28;20286;-76
2022/09/22 09:51:11;;;;;;;15.25;6.70;;;20.70;99.90;;;;;;4995301;28;20203;-75
2022/09/22 09:53:43;;;;;;;10.90;6.03;;;20.60;99.90;;;;;;4992309;28;20199;-75
2022/09/22 09:56:25;;;;;;;8.55;5.78;;;20.60;99.90;;;;;;4995917;28;20239;-76
2022/09/22 10:01:45;;;;;;;7.50;3.53;;;20.40;99.90;;;;;;4993059;28;20226;-75
2022/09/22 10:04:36;;;;;;;6.50;2.92;;;20.40;99.90;;;;;;4999811;28;20222;-75
2022/09/22 10:07:15;;;;;;;6.45;2.90;;;20.30;99.90;;;;;;4991418;28;20226;-75
2022/09/22 10:09:43;;;;;;;6.18;2.92;;;20.20;99.90;;;;;;4975858;28;20203;-74
2022/09/22 10:12:34;;;;;;;9.15;3.25;;;20.10;99.90;;;;;;4988234;28;20218;-74
2022/09/22 10:15:01;;;;;;;5.82;3.10;;;20.00;99.90;;;;;;4987908;28;20211;-76
2022/09/22 10:17:39;;;;;;;7.10;3.50;;;19.80;99.90;;;;;;4975815;28;20257;-76
2022/09/22 10:20:19;;;;;;;7.45;3.65;;;19.80;99.90;;;;;;4986821;28;20223;-74
2022/09/22 10:22:47;;;;;;;7.30;4.00;;;19.80;99.90;;;;;;4973338;28;20293;-75
2022/09/22 10:25:31;;;;;;;9.63;3.80;;;19.80;99.90;;;;;;4991370;28;20312;-76
2022/09/22 10:28:02;;;;;;;6.25;3.58;;;19.80;99.90;;;;;;4997467;28;20290;-75
2022/09/22 10:30:32;;;;;;;6.20;3.28;;;19.80;99.90;;;;;;4978547;28;20780;-74
2022/09/22 10:33:19;;;;;;;7.55;3.55;;;19.80;99.90;;;;;;4994039;28;20305;-74
2022/09/22 10:36:07;;;;;;;4.47;3.10;;;19.80;99.90;;;;;;4995340;28;20627;-78
2022/09/22 10:38:40;;;;;;;10.13;3.88;;;19.80;99.90;;;;;;4989915;28;20204;-75
2022/09/22 10:41:18;;;;;;;6.43;3.20;;;19.80;99.90;;;;;;4999219;28;20227;-75
2022/09/22 10:43:59;;;;;;;7.05;4.00;;;19.90;99.90;;;;;;4971730;28;20302;-74
2022/09/22 10:47:20;;;;;;;5.18;2.95;;;20.00;99.90;;;;;;4988832;28;20263;-74
2022/09/22 10:50:20;;;;;;;5.70;3.10;;;20.00;99.90;;;;;;4954529;28;20215;-75
2022/09/22 10:53:29;;;;;;;5.82;2.70;;;20.10;99.90;;;;;;4977382;28;20202;-76
2022/09/22 10:56:34;;;;;;;7.53;3.25;;;20.10;99.90;;;;;;4991802;28;20302;-75
2022/09/22 10:59:31;;;;;;;5.88;3.17;;;20.20;99.90;;;;;;4910475;29;20201;-75
2022/09/22 11:02:33;;;;;;;3.90;2.38;;;20.30;99.90;;;;;;4998294;28;20226;-75
2022/09/22 11:14:25;;;;;;;6.38;2.80;;;20.40;99.90;;;;;;4990411;28;20242;-76
2022/09/22 11:17:30;;;;;;;7.57;2.83;;;20.40;99.90;;;;;;4983533;28;20219;-74
2022/09/22 11:20:08;;;;;;;4.68;2.58;;;20.40;99.90;;;;;;4918058;29;20260;-75
2022/09/22 11:22:55;;;;;;;5.75;3.05;;;20.30;99.90;;;;;;4979524;28;20214;-73
2022/09/22 11:26:03;;;;;;;3.55;2.42;;;20.40;99.90;;;;;;4992388;28;20206;-75
2022/09/22 11:28:58;;;;;;;6.50;2.80;;;20.50;99.90;;;;;;4992116;28;20211;-76
2022/09/22 11:31:58;;;;;;;4.68;2.60;;;20.40;99.90;;;;;;4992110;28;20223;-75
2022/09/22 11:34:43;;;;;;;5.13;2.88;;;20.30;99.90;;;;;;4990269;28;20345;-75
2022/09/22 11:37:25;;;;;;;5.70;2.22;;;20.20;99.90;;;;;;4988230;28;20230;-76
2022/09/22 11:40:03;;;;;;;7.32;2.40;;;20.10;99.90;;;;;;4991209;28;20254;-75
2022/09/22 11:42:33;;;;;;;6.43;1.50;;;20.10;99.90;;;;;;4972425;28;20268;-74
2022/09/22 11:45:42;;;;;;;5.07;1.50;;;20.10;99.90;;;;;;4990492;28;20264;-75
2022/09/22 11:48:31;;;;;;;2.55;1.30;;;20.00;99.90;;;;;;4991082;28;20206;-74
2022/09/22 11:51:34;;;;;;;3.15;1.63;;;20.10;99.90;;;;;;4989892;28;20297;-75
2022/09/22 11:54:22;;;;;;;3.17;1.20;;;20.20;99.90;;;;;;4984820;28;20226;-74
2022/09/22 11:56:54;;;;;;;2.63;1.30;;;20.60;99.90;;;;;;4987089;28;20238;-74
2022/09/22 11:59:47;;;;;;;1.70;1.40;;;20.90;99.90;;;;;;4985488;28;20286;-74
2022/09/22 12:02:34;;;;;;;2.88;1.60;;;21.10;99.00;;;;;;4986512;28;20251;-76
2022/09/22 12:05:12;;;;;;;2.47;1.65;;;21.20;99.40;;;;;;4990130;28;20206;-76
2022/09/22 12:08:02;;;;;;;2.95;1.50;;;21.10;98.90;;;;;;4981312;28;20207;-76
2022/09/22 12:10:36;;;;;;;2.10;1.35;;;21.10;99.00;;;;;;4974860;28;20286;-76
2022/09/22 12:13:10;;;;;;;4.05;1.60;;;21.00;98.40;;;;;;4981343;28;20643;-75
2022/09/22 12:15:46;;;;;;;4.70;1.50;;;20.90;98.10;;;;;;4966581;28;20199;-74
2022/09/22 12:18:34;;;;;;;2.35;1.38;;;20.90;98.00;;;;;;4991856;28;20238;-75
2022/09/22 12:21:46;;;;;;;3.85;1.63;;;21.10;98.80;;;;;;4973030;28;20544;-74
2022/09/22 12:24:12;;;;;;;4.55;1.60;;;21.50;99.10;;;;;;4990411;28;20630;-74
2022/09/22 12:26:45;;;;;;;4.30;1.90;;;21.70;98.50;;;;;;4990271;28;20304;-74
2022/09/22 12:29:15;;;;;;;2.58;1.35;;;21.90;97.60;;;;;;4978333;28;20628;-75
2022/09/22 12:31:54;;;;;;;3.58;1.60;;;21.80;96.90;;;;;;5057433;27;1250300;-74
2022/09/22 12:34:36;;;;;;;6.80;1.70;;;21.60;96.60;;;;;;5086025;28;20203;-75
2022/09/22 12:37:28;;;;;;;3.25;1.80;;;21.50;96.60;;;;;;5082694;28;20214;-76
2022/09/22 12:40:01;;;;;;;5.97;1.95;;;21.30;97.40;;;;;;5095372;28;20203;-74
2022/09/22 12:42:36;;;;;;;5.25;1.70;;;21.20;96.80;;;;;;5094924;28;20272;-73
2022/09/22 12:45:20;;;;;;;2.72;1.90;;;21.40;97.10;;;;;;5098755;28;20311;-74
2022/09/22 12:47:50;;;;;;;4.22;1.83;;;21.80;97.00;;;;;;5083860;28;20222;-75
2022/09/22 12:50:23;;;;;;;4.90;2.17;;;21.70;96.50;;;;;;5099291;28;20223;-77
2022/09/22 12:52:50;;;;;;;3.95;1.65;;;21.90;96.10;;;;;;5097751;28;20675;-74
2022/09/22 12:55:18;;;;;;;3.03;1.73;;;22.10;95.90;;;;;;5081371;28;20209;-73
2022/09/22 12:57:50;;;;;;;5.22;1.48;;;22.10;95.20;;;;;;5085094;28;20200;-74
2022/09/22 13:00:39;;;;;;;2.13;1.60;;;22.30;95.50;;;;;;5097571;28;20660;-75
2022/09/22 13:03:25;;;;;;;3.03;1.50;;;22.10;95.00;;;;;;5102013;28;20187;-75
2022/09/22 13:05:55;;;;;;;2.55;1.70;;;21.90;94.80;;;;;;5106383;28;20206;-74
2022/09/22 13:08:53;;;;;;;3.88;1.60;;;21.70;94.60;;;;;;5102679;28;20235;-75
2022/09/22 13:11:59;;;;;;;3.28;1.83;;;21.40;94.70;;;;;;5101501;28;20694;-75
2022/09/22 13:15:08;;;;;;;4.78;1.95;;;21.10;95.40;;;;;;5041839;28;20195;-75
2022/09/22 13:17:40;;;;;;;3.53;1.70;;;20.90;96.30;;;;;;5098851;28;20241;-74
2022/09/22 13:20:32;;;;;;;2.97;2.15;;;20.90;96.20;;;;;;5096861;28;20310;-76
2022/09/22 13:23:04;;;;;;;5.20;2.13;;;20.80;96.40;;;;;;5091788;28;20499;-74
2022/09/22 13:25:31;;;;;;;5.32;2.13;;;21.20;96.60;;;;;;5079552;28;20198;-74
2022/09/22 13:28:02;;;;;;;6.30;2.45;;;21.00;96.80;;;;;;5081640;28;20441;-74
2022/09/22 13:30:31;;;;;;;3.15;1.60;;;21.30;96.80;;;;;;5097447;28;20230;-74
2022/09/22 13:32:58;;;;;;;5.75;2.38;;;21.40;96.90;;;;;;5078752;28;20585;-73
2022/09/22 13:35:34;;;;;;;4.25;2.13;;;21.60;97.00;;;;;;5097083;28;20200;-74
2022/09/22 13:38:02;;;;;;;3.70;2.30;;;21.80;96.80;;;;;;5101513;28;20653;-74
2022/09/22 13:40:33;;;;;;;5.20;1.95;;;22.00;96.90;;;;;;5097888;28;20211;-74
2022/09/22 13:43:07;;;;;;;6.10;1.90;;;22.10;97.00;;;;;;5083362;28;20226;-71
2022/09/22 13:45:36;;;;;;;3.15;2.10;;;22.30;96.20;;;;;;5085768;28;20571;-71
2022/09/22 13:48:10;;;;;;;4.35;1.80;;;22.30;95.10;;;;;;5064538;28;20551;-70
2022/09/22 13:50:44;;;;;;;2.80;1.40;;;22.40;95.20;;;;;;5087613;28;20580;-69
2022/09/22 13:53:17;;;;;;;2.40;1.60;;;22.50;95.50;;;;;;5090257;28;20294;-69
2022/09/22 13:55:49;;;;;;;2.65;1.48;;;22.50;95.10;;;;;;5087578;28;20266;-74
2022/09/22 13:58:28;;;;;;;3.55;1.55;;;22.60;94.50;;;;;;5067096;28;20207;-69
2022/09/22 14:00:57;;;;;;;4.80;1.63;;;22.70;94.30;;;;;;5067163;28;20231;-70